sensor_id;sensor_type;location;lat;lon;timestamp;P1;durP1;ratioP1;P2;durP2;ratioP2
49948;SDS011;35840;45.982;8.890;2023-11-21T00:02:21;12.52;;;7.53;;
49948;SDS011;35840;45.982;8.890;2023-11-21T00:04:48;12.02;;;7.13;;
49948;SDS011;35840;45.982;8.890;2023-11-21T00:07:17;13.55;;;8.70;;
49948;SDS011;35840;45.982;8.890;2023-11-21T00:09:43;11.07;;;7.65;;
49948;SDS011;35840;45.982;8.890;2023-11-21T00:12:10;11.77;;;8.27;;
49948;SDS011;35840;45.982;8.890;2023-11-21T00:14:37;15.07;;;8.38;;
49948;SDS011;35840;45.982;8.890;2023-11-21T00:17:05;13.55;;;8.77;;
49948;SDS011;35840;45.982;8.890;2023-11-21T00:19:32;13.20;;;9.27;;
49948;SDS011;35840;45.982;8.890;2023-11-21T00:22:01;11.90;;;7.85;;
49948;SDS011;35840;45.982;8.890;2023-11-21T00:24:28;14.38;;;8.90;;
49948;SDS011;35840;45.982;8.890;2023-11-21T00:26:54;12.65;;;7.80;;
49948;SDS011;35840;45.982;8.890;2023-11-21T00:29:22;17.27;;;8.73;;
49948;SDS011;35840;45.982;8.890;2023-11-21T00:31:50;12.52;;;7.68;;
49948;SDS011;35840;45.982;8.890;2023-11-21T00:34:17;11.68;;;7.32;;
49948;SDS011;35840;45.982;8.890;2023-11-21T00:36:44;14.60;;;8.25;;
49948;SDS011;35840;45.982;8.890;2023-11-21T00:39:10;12.55;;;7.97;;
49948;SDS011;35840;45.982;8.890;2023-11-21T00:41:39;14.05;;;8.30;;
49948;SDS011;35840;45.982;8.890;2023-11-21T00:44:06;13.57;;;8.02;;
49948;SDS011;35840;45.982;8.890;2023-11-21T00:46:33;13.18;;;8.20;;
49948;SDS011;35840;45.982;8.890;2023-11-21T00:49:00;14.15;;;8.65;;
49948;SDS011;35840;45.982;8.890;2023-11-21T00:51:27;14.48;;;8.98;;
49948;SDS011;35840;45.982;8.890;2023-11-21T00:53:53;14.15;;;8.45;;
49948;SDS011;35840;45.982;8.890;2023-11-21T00:56:20;16.63;;;8.57;;
49948;SDS011;35840;45.982;8.890;2023-11-21T00:58:47;14.25;;;9.25;;
49948;SDS011;35840;45.982;8.890;2023-11-21T01:01:16;8.50;;;6.72;;
49948;SDS011;35840;45.982;8.890;2023-11-21T01:03:43;12.68;;;7.32;;
49948;SDS011;35840;45.982;8.890;2023-11-21T01:06:12;10.68;;;7.55;;
49948;SDS011;35840;45.982;8.890;2023-11-21T01:08:41;10.90;;;7.60;;
49948;SDS011;35840;45.982;8.890;2023-11-21T01:11:09;12.25;;;7.90;;
49948;SDS011;35840;45.982;8.890;2023-11-21T01:13:38;11.57;;;8.48;;
49948;SDS011;35840;45.982;8.890;2023-11-21T01:16:06;14.63;;;8.55;;
49948;SDS011;35840;45.982;8.890;2023-11-21T01:18:34;14.63;;;8.73;;
49948;SDS011;35840;45.982;8.890;2023-11-21T01:21:01;14.68;;;9.68;;
49948;SDS011;35840;45.982;8.890;2023-11-21T01:23:28;14.77;;;10.38;;
49948;SDS011;35840;45.982;8.890;2023-11-21T01:25:57;15.98;;;10.02;;
49948;SDS011;35840;45.982;8.890;2023-11-21T01:28:24;14.02;;;10.65;;
49948;SDS011;35840;45.982;8.890;2023-11-21T01:30:51;15.57;;;10.38;;
49948;SDS011;35840;45.982;8.890;2023-11-21T01:33:18;14.52;;;10.05;;
49948;SDS011;35840;45.982;8.890;2023-11-21T01:35:45;13.07;;;7.88;;
49948;SDS011;35840;45.982;8.890;2023-11-21T01:38:13;13.32;;;9.32;;
49948;SDS011;35840;45.982;8.890;2023-11-21T01:40:41;14.52;;;9.85;;
49948;SDS011;35840;45.982;8.890;2023-11-21T01:43:08;14.85;;;9.38;;
49948;SDS011;35840;45.982;8.890;2023-11-21T01:45:35;11.05;;;8.80;;
49948;SDS011;35840;45.982;8.890;2023-11-21T01:48:02;14.82;;;9.75;;
49948;SDS011;35840;45.982;8.890;2023-11-21T01:50:30;14.60;;;9.60;;
49948;SDS011;35840;45.982;8.890;2023-11-21T01:52:57;14.60;;;9.52;;
49948;SDS011;35840;45.982;8.890;2023-11-21T01:55:24;17.75;;;9.73;;
49948;SDS011;35840;45.982;8.890;2023-11-21T01:57:56;11.95;;;8.23;;
49948;SDS011;35840;45.982;8.890;2023-11-21T02:00:26;13.10;;;9.13;;
49948;SDS011;35840;45.982;8.890;2023-11-21T02:02:54;17.25;;;9.27;;
49948;SDS011;35840;45.982;8.890;2023-11-21T02:05:21;17.88;;;11.85;;
49948;SDS011;35840;45.982;8.890;2023-11-21T02:07:49;17.80;;;11.80;;
49948;SDS011;35840;45.982;8.890;2023-11-21T02:10:16;14.77;;;9.98;;
49948;SDS011;35840;45.982;8.890;2023-11-21T02:12:43;17.40;;;11.13;;
49948;SDS011;35840;45.982;8.890;2023-11-21T02:15:14;16.05;;;11.13;;
49948;SDS011;35840;45.982;8.890;2023-11-21T02:17:47;16.65;;;10.25;;
49948;SDS011;35840;45.982;8.890;2023-11-21T02:20:19;18.60;;;10.70;;
49948;SDS011;35840;45.982;8.890;2023-11-21T02:22:58;15.02;;;11.05;;
49948;SDS011;35840;45.982;8.890;2023-11-21T02:25:29;14.00;;;10.05;;
49948;SDS011;35840;45.982;8.890;2023-11-21T02:27:59;21.73;;;11.85;;
49948;SDS011;35840;45.982;8.890;2023-11-21T02:30:27;17.98;;;10.75;;
49948;SDS011;35840;45.982;8.890;2023-11-21T02:32:54;14.43;;;10.35;;
49948;SDS011;35840;45.982;8.890;2023-11-21T02:35:24;14.63;;;10.63;;
49948;SDS011;35840;45.982;8.890;2023-11-21T02:37:54;17.60;;;11.57;;
49948;SDS011;35840;45.982;8.890;2023-11-21T02:40:21;18.08;;;11.73;;
49948;SDS011;35840;45.982;8.890;2023-11-21T02:42:51;18.27;;;11.15;;
49948;SDS011;35840;45.982;8.890;2023-11-21T02:45:19;18.58;;;11.27;;
49948;SDS011;35840;45.982;8.890;2023-11-21T02:47:51;15.82;;;10.45;;
49948;SDS011;35840;45.982;8.890;2023-11-21T02:50:20;18.17;;;11.77;;
49948;SDS011;35840;45.982;8.890;2023-11-21T02:52:50;21.52;;;12.82;;
49948;SDS011;35840;45.982;8.890;2023-11-21T02:55:17;22.80;;;12.40;;
49948;SDS011;35840;45.982;8.890;2023-11-21T02:57:45;18.70;;;12.05;;
49948;SDS011;35840;45.982;8.890;2023-11-21T03:00:11;17.38;;;11.38;;
49948;SDS011;35840;45.982;8.890;2023-11-21T03:02:41;19.45;;;11.68;;
49948;SDS011;35840;45.982;8.890;2023-11-21T03:05:09;17.70;;;10.40;;
49948;SDS011;35840;45.982;8.890;2023-11-21T03:07:37;18.75;;;12.75;;
49948;SDS011;35840;45.982;8.890;2023-11-21T03:10:04;16.70;;;12.27;;
49948;SDS011;35840;45.982;8.890;2023-11-21T03:12:33;18.00;;;11.77;;
49948;SDS011;35840;45.982;8.890;2023-11-21T03:15:00;15.73;;;10.77;;
49948;SDS011;35840;45.982;8.890;2023-11-21T03:17:28;17.23;;;11.05;;
49948;SDS011;35840;45.982;8.890;2023-11-21T03:19:55;17.00;;;11.80;;
49948;SDS011;35840;45.982;8.890;2023-11-21T03:22:23;14.48;;;10.93;;
49948;SDS011;35840;45.982;8.890;2023-11-21T03:24:50;15.77;;;9.68;;
49948;SDS011;35840;45.982;8.890;2023-11-21T03:27:17;16.83;;;10.38;;
49948;SDS011;35840;45.982;8.890;2023-11-21T03:29:44;15.52;;;10.98;;
49948;SDS011;35840;45.982;8.890;2023-11-21T03:32:13;13.30;;;10.55;;
49948;SDS011;35840;45.982;8.890;2023-11-21T03:34:58;13.65;;;10.65;;
49948;SDS011;35840;45.982;8.890;2023-11-21T03:37:26;13.68;;;9.52;;
49948;SDS011;35840;45.982;8.890;2023-11-21T03:39:57;13.57;;;9.75;;
49948;SDS011;35840;45.982;8.890;2023-11-21T03:42:24;18.05;;;10.65;;
49948;SDS011;35840;45.982;8.890;2023-11-21T03:44:54;16.73;;;10.45;;
49948;SDS011;35840;45.982;8.890;2023-11-21T03:47:21;18.10;;;10.45;;
49948;SDS011;35840;45.982;8.890;2023-11-21T03:49:48;16.83;;;11.00;;
49948;SDS011;35840;45.982;8.890;2023-11-21T03:52:15;16.70;;;11.18;;
49948;SDS011;35840;45.982;8.890;2023-11-21T03:54:43;14.32;;;10.48;;
49948;SDS011;35840;45.982;8.890;2023-11-21T03:57:10;15.65;;;10.68;;
49948;SDS011;35840;45.982;8.890;2023-11-21T03:59:42;20.73;;;12.20;;
49948;SDS011;35840;45.982;8.890;2023-11-21T04:02:09;18.65;;;11.25;;
49948;SDS011;35840;45.982;8.890;2023-11-21T04:04:36;16.23;;;10.95;;
49948;SDS011;35840;45.982;8.890;2023-11-21T04:07:03;18.25;;;11.43;;
49948;SDS011;35840;45.982;8.890;2023-11-21T04:09:31;19.42;;;12.63;;
49948;SDS011;35840;45.982;8.890;2023-11-21T04:11:57;16.17;;;11.60;;
49948;SDS011;35840;45.982;8.890;2023-11-21T04:14:24;14.20;;;9.93;;
49948;SDS011;35840;45.982;8.890;2023-11-21T04:16:51;19.05;;;11.85;;
49948;SDS011;35840;45.982;8.890;2023-11-21T04:19:18;17.95;;;11.70;;
49948;SDS011;35840;45.982;8.890;2023-11-21T04:21:45;16.67;;;10.48;;
49948;SDS011;35840;45.982;8.890;2023-11-21T04:24:12;15.13;;;10.00;;
49948;SDS011;35840;45.982;8.890;2023-11-21T04:26:39;22.73;;;12.60;;
49948;SDS011;35840;45.982;8.890;2023-11-21T04:29:05;19.50;;;12.68;;
49948;SDS011;35840;45.982;8.890;2023-11-21T04:31:32;22.85;;;14.15;;
49948;SDS011;35840;45.982;8.890;2023-11-21T04:33:59;19.88;;;13.05;;
49948;SDS011;35840;45.982;8.890;2023-11-21T04:36:26;23.05;;;14.52;;
49948;SDS011;35840;45.982;8.890;2023-11-21T04:38:53;19.73;;;12.30;;
49948;SDS011;35840;45.982;8.890;2023-11-21T04:41:19;18.15;;;12.20;;
49948;SDS011;35840;45.982;8.890;2023-11-21T04:43:46;19.65;;;10.65;;
49948;SDS011;35840;45.982;8.890;2023-11-21T04:46:13;17.45;;;11.15;;
49948;SDS011;35840;45.982;8.890;2023-11-21T04:48:40;16.48;;;10.45;;
49948;SDS011;35840;45.982;8.890;2023-11-21T04:51:07;18.38;;;12.88;;
49948;SDS011;35840;45.982;8.890;2023-11-21T04:53:33;18.25;;;11.23;;
49948;SDS011;35840;45.982;8.890;2023-11-21T04:56:01;15.93;;;11.25;;
49948;SDS011;35840;45.982;8.890;2023-11-21T04:58:28;17.02;;;10.95;;
49948;SDS011;35840;45.982;8.890;2023-11-21T05:00:57;16.80;;;10.52;;
49948;SDS011;35840;45.982;8.890;2023-11-21T05:03:23;14.80;;;10.32;;
49948;SDS011;35840;45.982;8.890;2023-11-21T05:05:51;17.55;;;10.73;;
49948;SDS011;35840;45.982;8.890;2023-11-21T05:08:17;20.05;;;10.88;;
49948;SDS011;35840;45.982;8.890;2023-11-21T05:10:46;17.30;;;10.20;;
49948;SDS011;35840;45.982;8.890;2023-11-21T05:13:14;52.17;;;25.33;;
49948;SDS011;35840;45.982;8.890;2023-11-21T05:15:44;25.45;;;15.32;;
49948;SDS011;35840;45.982;8.890;2023-11-21T05:18:11;23.40;;;13.90;;
49948;SDS011;35840;45.982;8.890;2023-11-21T05:20:40;21.05;;;11.98;;
49948;SDS011;35840;45.982;8.890;2023-11-21T05:23:07;27.02;;;14.18;;
49948;SDS011;35840;45.982;8.890;2023-11-21T05:25:34;23.90;;;14.43;;
49948;SDS011;35840;45.982;8.890;2023-11-21T05:28:06;24.38;;;16.08;;
49948;SDS011;35840;45.982;8.890;2023-11-21T05:30:33;26.63;;;14.27;;
49948;SDS011;35840;45.982;8.890;2023-11-21T05:32:59;17.75;;;12.00;;
49948;SDS011;35840;45.982;8.890;2023-11-21T05:35:26;22.33;;;12.70;;
49948;SDS011;35840;45.982;8.890;2023-11-21T05:37:53;18.20;;;12.27;;
49948;SDS011;35840;45.982;8.890;2023-11-21T05:40:20;16.05;;;11.52;;
49948;SDS011;35840;45.982;8.890;2023-11-21T05:42:49;17.67;;;10.70;;
49948;SDS011;35840;45.982;8.890;2023-11-21T05:45:17;15.43;;;10.38;;
49948;SDS011;35840;45.982;8.890;2023-11-21T05:47:45;16.55;;;10.38;;
49948;SDS011;35840;45.982;8.890;2023-11-21T05:50:14;15.95;;;10.90;;
49948;SDS011;35840;45.982;8.890;2023-11-21T05:52:43;17.17;;;10.95;;
49948;SDS011;35840;45.982;8.890;2023-11-21T05:55:11;15.98;;;10.98;;
49948;SDS011;35840;45.982;8.890;2023-11-21T05:57:38;18.83;;;11.05;;
49948;SDS011;35840;45.982;8.890;2023-11-21T06:00:07;16.58;;;11.15;;
49948;SDS011;35840;45.982;8.890;2023-11-21T06:02:44;16.60;;;11.68;;
49948;SDS011;35840;45.982;8.890;2023-11-21T06:05:11;17.25;;;11.07;;
49948;SDS011;35840;45.982;8.890;2023-11-21T06:07:38;18.58;;;11.25;;
49948;SDS011;35840;45.982;8.890;2023-11-21T06:10:07;17.15;;;11.50;;
49948;SDS011;35840;45.982;8.890;2023-11-21T06:12:39;17.77;;;11.40;;
49948;SDS011;35840;45.982;8.890;2023-11-21T06:15:07;16.00;;;10.73;;
49948;SDS011;35840;45.982;8.890;2023-11-21T06:17:35;19.08;;;11.40;;
49948;SDS011;35840;45.982;8.890;2023-11-21T06:20:03;18.73;;;11.15;;
49948;SDS011;35840;45.982;8.890;2023-11-21T06:22:39;20.60;;;12.55;;
49948;SDS011;35840;45.982;8.890;2023-11-21T06:25:07;18.10;;;11.63;;
49948;SDS011;35840;45.982;8.890;2023-11-21T06:27:39;16.20;;;10.32;;
49948;SDS011;35840;45.982;8.890;2023-11-21T06:30:08;20.27;;;10.85;;
49948;SDS011;35840;45.982;8.890;2023-11-21T06:32:36;16.95;;;11.13;;
49948;SDS011;35840;45.982;8.890;2023-11-21T06:35:03;16.90;;;11.15;;
49948;SDS011;35840;45.982;8.890;2023-11-21T06:37:31;21.10;;;12.63;;
49948;SDS011;35840;45.982;8.890;2023-11-21T06:39:59;20.08;;;12.52;;
49948;SDS011;35840;45.982;8.890;2023-11-21T06:42:26;19.65;;;12.43;;
49948;SDS011;35840;45.982;8.890;2023-11-21T06:44:55;20.75;;;11.80;;
49948;SDS011;35840;45.982;8.890;2023-11-21T06:47:25;22.13;;;12.95;;
49948;SDS011;35840;45.982;8.890;2023-11-21T06:49:53;21.63;;;12.48;;
49948;SDS011;35840;45.982;8.890;2023-11-21T06:52:20;20.92;;;11.77;;
49948;SDS011;35840;45.982;8.890;2023-11-21T06:54:47;19.35;;;12.00;;
49948;SDS011;35840;45.982;8.890;2023-11-21T06:57:16;20.65;;;12.60;;
49948;SDS011;35840;45.982;8.890;2023-11-21T06:59:43;20.77;;;12.02;;
49948;SDS011;35840;45.982;8.890;2023-11-21T07:02:10;21.98;;;13.73;;
49948;SDS011;35840;45.982;8.890;2023-11-21T07:04:37;23.95;;;13.38;;
49948;SDS011;35840;45.982;8.890;2023-11-21T07:07:04;25.98;;;12.98;;
49948;SDS011;35840;45.982;8.890;2023-11-21T07:09:33;23.02;;;12.63;;
49948;SDS011;35840;45.982;8.890;2023-11-21T07:12:00;21.50;;;13.25;;
49948;SDS011;35840;45.982;8.890;2023-11-21T07:14:27;21.70;;;12.52;;
49948;SDS011;35840;45.982;8.890;2023-11-21T07:16:54;22.10;;;11.30;;
49948;SDS011;35840;45.982;8.890;2023-11-21T07:19:21;26.10;;;13.05;;
49948;SDS011;35840;45.982;8.890;2023-11-21T07:21:48;23.30;;;13.07;;
49948;SDS011;35840;45.982;8.890;2023-11-21T07:24:17;24.73;;;13.05;;
49948;SDS011;35840;45.982;8.890;2023-11-21T07:26:45;21.40;;;12.80;;
49948;SDS011;35840;45.982;8.890;2023-11-21T07:29:12;21.67;;;11.98;;
49948;SDS011;35840;45.982;8.890;2023-11-21T07:31:40;20.75;;;13.27;;
49948;SDS011;35840;45.982;8.890;2023-11-21T07:34:08;23.65;;;13.77;;
49948;SDS011;35840;45.982;8.890;2023-11-21T07:36:35;25.63;;;14.10;;
49948;SDS011;35840;45.982;8.890;2023-11-21T07:39:02;23.88;;;13.70;;
49948;SDS011;35840;45.982;8.890;2023-11-21T07:41:29;23.15;;;13.25;;
49948;SDS011;35840;45.982;8.890;2023-11-21T07:43:57;21.63;;;11.73;;
49948;SDS011;35840;45.982;8.890;2023-11-21T07:46:25;24.42;;;13.13;;
49948;SDS011;35840;45.982;8.890;2023-11-21T07:48:54;22.70;;;13.35;;
49948;SDS011;35840;45.982;8.890;2023-11-21T07:51:21;22.75;;;13.32;;
49948;SDS011;35840;45.982;8.890;2023-11-21T07:53:48;27.58;;;13.77;;
49948;SDS011;35840;45.982;8.890;2023-11-21T07:56:16;24.67;;;14.00;;
49948;SDS011;35840;45.982;8.890;2023-11-21T07:58:43;27.02;;;14.52;;
49948;SDS011;35840;45.982;8.890;2023-11-21T08:01:11;23.10;;;14.32;;
49948;SDS011;35840;45.982;8.890;2023-11-21T08:03:38;24.45;;;14.18;;
49948;SDS011;35840;45.982;8.890;2023-11-21T08:06:05;20.77;;;12.40;;
49948;SDS011;35840;45.982;8.890;2023-11-21T08:08:32;20.92;;;12.70;;
49948;SDS011;35840;45.982;8.890;2023-11-21T08:10:59;23.38;;;13.40;;
49948;SDS011;35840;45.982;8.890;2023-11-21T08:13:28;23.50;;;14.82;;
49948;SDS011;35840;45.982;8.890;2023-11-21T08:15:57;20.80;;;12.95;;
49948;SDS011;35840;45.982;8.890;2023-11-21T08:18:28;19.92;;;12.75;;
49948;SDS011;35840;45.982;8.890;2023-11-21T08:20:56;22.45;;;13.30;;
49948;SDS011;35840;45.982;8.890;2023-11-21T08:23:24;20.15;;;12.32;;
49948;SDS011;35840;45.982;8.890;2023-11-21T08:25:52;29.50;;;15.25;;
49948;SDS011;35840;45.982;8.890;2023-11-21T08:28:19;24.17;;;15.18;;
49948;SDS011;35840;45.982;8.890;2023-11-21T08:30:48;27.48;;;15.57;;
49948;SDS011;35840;45.982;8.890;2023-11-21T08:33:15;21.65;;;14.25;;
49948;SDS011;35840;45.982;8.890;2023-11-21T08:35:42;24.27;;;16.02;;
49948;SDS011;35840;45.982;8.890;2023-11-21T08:38:09;22.20;;;14.85;;
49948;SDS011;35840;45.982;8.890;2023-11-21T08:40:36;25.67;;;14.90;;
49948;SDS011;35840;45.982;8.890;2023-11-21T08:43:03;26.40;;;15.30;;
49948;SDS011;35840;45.982;8.890;2023-11-21T08:45:31;25.20;;;15.10;;
49948;SDS011;35840;45.982;8.890;2023-11-21T08:48:00;26.08;;;16.63;;
49948;SDS011;35840;45.982;8.890;2023-11-21T08:50:28;26.08;;;15.65;;
49948;SDS011;35840;45.982;8.890;2023-11-21T08:52:55;27.90;;;15.32;;
49948;SDS011;35840;45.982;8.890;2023-11-21T08:55:22;22.27;;;15.32;;
49948;SDS011;35840;45.982;8.890;2023-11-21T08:57:49;23.98;;;15.05;;
49948;SDS011;35840;45.982;8.890;2023-11-21T09:00:17;26.27;;;16.45;;
49948;SDS011;35840;45.982;8.890;2023-11-21T09:02:45;24.20;;;15.45;;
49948;SDS011;35840;45.982;8.890;2023-11-21T09:05:13;25.25;;;16.60;;
49948;SDS011;35840;45.982;8.890;2023-11-21T09:07:41;25.65;;;15.35;;
49948;SDS011;35840;45.982;8.890;2023-11-21T09:10:09;26.35;;;14.45;;
49948;SDS011;35840;45.982;8.890;2023-11-21T09:12:36;23.05;;;15.57;;
49948;SDS011;35840;45.982;8.890;2023-11-21T09:15:07;24.85;;;15.10;;
49948;SDS011;35840;45.982;8.890;2023-11-21T09:17:36;27.00;;;16.48;;
49948;SDS011;35840;45.982;8.890;2023-11-21T09:20:03;29.13;;;17.35;;
49948;SDS011;35840;45.982;8.890;2023-11-21T09:22:32;30.08;;;16.80;;
49948;SDS011;35840;45.982;8.890;2023-11-21T09:24:59;31.95;;;16.67;;
49948;SDS011;35840;45.982;8.890;2023-11-21T09:27:26;27.92;;;15.68;;
49948;SDS011;35840;45.982;8.890;2023-11-21T09:29:53;30.05;;;17.20;;
49948;SDS011;35840;45.982;8.890;2023-11-21T09:32:20;23.88;;;15.25;;
49948;SDS011;35840;45.982;8.890;2023-11-21T09:34:51;26.60;;;15.68;;
49948;SDS011;35840;45.982;8.890;2023-11-21T09:37:18;26.48;;;17.25;;
49948;SDS011;35840;45.982;8.890;2023-11-21T09:39:45;29.00;;;17.52;;
49948;SDS011;35840;45.982;8.890;2023-11-21T09:42:20;30.48;;;17.27;;
49948;SDS011;35840;45.982;8.890;2023-11-21T09:45:03;29.35;;;16.45;;
49948;SDS011;35840;45.982;8.890;2023-11-21T09:47:31;32.15;;;17.75;;
49948;SDS011;35840;45.982;8.890;2023-11-21T09:50:02;27.15;;;16.05;;
49948;SDS011;35840;45.982;8.890;2023-11-21T09:52:29;21.92;;;13.60;;
49948;SDS011;35840;45.982;8.890;2023-11-21T09:54:59;23.48;;;14.52;;
49948;SDS011;35840;45.982;8.890;2023-11-21T09:57:27;25.70;;;15.00;;
49948;SDS011;35840;45.982;8.890;2023-11-21T09:59:54;26.35;;;14.88;;
49948;SDS011;35840;45.982;8.890;2023-11-21T10:02:38;21.48;;;14.05;;
49948;SDS011;35840;45.982;8.890;2023-11-21T10:05:07;19.90;;;13.02;;
49948;SDS011;35840;45.982;8.890;2023-11-21T10:07:36;20.45;;;12.20;;
49948;SDS011;35840;45.982;8.890;2023-11-21T10:10:03;22.90;;;12.93;;
49948;SDS011;35840;45.982;8.890;2023-11-21T10:12:31;19.25;;;11.88;;
49948;SDS011;35840;45.982;8.890;2023-11-21T10:14:59;19.05;;;12.23;;
49948;SDS011;35840;45.982;8.890;2023-11-21T10:17:28;19.02;;;12.65;;
49948;SDS011;35840;45.982;8.890;2023-11-21T10:19:58;19.20;;;11.80;;
49948;SDS011;35840;45.982;8.890;2023-11-21T10:22:25;18.15;;;11.15;;
49948;SDS011;35840;45.982;8.890;2023-11-21T10:24:53;13.10;;;9.27;;
49948;SDS011;35840;45.982;8.890;2023-11-21T10:27:20;15.68;;;9.50;;
49948;SDS011;35840;45.982;8.890;2023-11-21T10:29:46;14.05;;;8.88;;
49948;SDS011;35840;45.982;8.890;2023-11-21T10:32:13;11.77;;;8.32;;
49948;SDS011;35840;45.982;8.890;2023-11-21T10:34:40;12.32;;;8.27;;
49948;SDS011;35840;45.982;8.890;2023-11-21T10:37:14;12.40;;;7.15;;
49948;SDS011;35840;45.982;8.890;2023-11-21T10:42:11;10.70;;;7.00;;
49948;SDS011;35840;45.982;8.890;2023-11-21T10:44:38;10.27;;;6.40;;
49948;SDS011;35840;45.982;8.890;2023-11-21T10:47:08;11.27;;;6.30;;
49948;SDS011;35840;45.982;8.890;2023-11-21T10:49:35;8.40;;;5.35;;
49948;SDS011;35840;45.982;8.890;2023-11-21T10:52:03;7.63;;;5.70;;
49948;SDS011;35840;45.982;8.890;2023-11-21T10:54:30;7.35;;;5.43;;
49948;SDS011;35840;45.982;8.890;2023-11-21T10:56:58;8.68;;;4.88;;
49948;SDS011;35840;45.982;8.890;2023-11-21T10:59:30;7.55;;;4.78;;
49948;SDS011;35840;45.982;8.890;2023-11-21T11:01:59;5.78;;;4.40;;
49948;SDS011;35840;45.982;8.890;2023-11-21T11:04:33;6.25;;;3.80;;
49948;SDS011;35840;45.982;8.890;2023-11-21T11:07:04;4.85;;;3.72;;
49948;SDS011;35840;45.982;8.890;2023-11-21T11:09:36;6.20;;;3.38;;
49948;SDS011;35840;45.982;8.890;2023-11-21T11:12:02;6.90;;;2.97;;
49948;SDS011;35840;45.982;8.890;2023-11-21T11:14:33;3.17;;;2.20;;
49948;SDS011;35840;45.982;8.890;2023-11-21T11:17:00;4.10;;;2.45;;
49948;SDS011;35840;45.982;8.890;2023-11-21T11:19:28;3.97;;;2.35;;
49948;SDS011;35840;45.982;8.890;2023-11-21T11:33:41;2.80;;;1.80;;
49948;SDS011;35840;45.982;8.890;2023-11-21T11:38:53;2.78;;;1.88;;
49948;SDS011;35840;45.982;8.890;2023-11-21T11:41:25;3.28;;;1.65;;
49948;SDS011;35840;45.982;8.890;2023-11-21T11:43:54;3.35;;;1.70;;
49948;SDS011;35840;45.982;8.890;2023-11-21T11:46:22;3.22;;;2.20;;
49948;SDS011;35840;45.982;8.890;2023-11-21T11:49:08;2.08;;;1.73;;
49948;SDS011;35840;45.982;8.890;2023-11-21T11:51:35;3.45;;;1.92;;
49948;SDS011;35840;45.982;8.890;2023-11-21T11:54:02;4.75;;;1.80;;
49948;SDS011;35840;45.982;8.890;2023-11-21T11:56:31;5.72;;;1.90;;
49948;SDS011;35840;45.982;8.890;2023-11-21T11:59:04;3.30;;;1.85;;
49948;SDS011;35840;45.982;8.890;2023-11-21T12:01:32;2.92;;;1.90;;
49948;SDS011;35840;45.982;8.890;2023-11-21T12:06:53;3.53;;;2.00;;
49948;SDS011;35840;45.982;8.890;2023-11-21T12:09:21;4.60;;;3.13;;
49948;SDS011;35840;45.982;8.890;2023-11-21T12:11:50;7.20;;;3.88;;
49948;SDS011;35840;45.982;8.890;2023-11-21T12:14:17;6.38;;;3.45;;
49948;SDS011;35840;45.982;8.890;2023-11-21T12:16:44;4.22;;;3.20;;
49948;SDS011;35840;45.982;8.890;2023-11-21T12:19:11;4.78;;;3.08;;
49948;SDS011;35840;45.982;8.890;2023-11-21T12:21:39;5.63;;;4.50;;
49948;SDS011;35840;45.982;8.890;2023-11-21T12:24:10;7.65;;;3.95;;
49948;SDS011;35840;45.982;8.890;2023-11-21T12:26:41;6.75;;;3.47;;
49948;SDS011;35840;45.982;8.890;2023-11-21T12:29:09;7.20;;;3.10;;
49948;SDS011;35840;45.982;8.890;2023-11-21T12:31:37;5.18;;;3.08;;
49948;SDS011;35840;45.982;8.890;2023-11-21T12:34:04;4.45;;;3.33;;
49948;SDS011;35840;45.982;8.890;2023-11-21T12:36:33;5.38;;;3.17;;
49948;SDS011;35840;45.982;8.890;2023-11-21T12:39:01;5.60;;;3.42;;
49948;SDS011;35840;45.982;8.890;2023-11-21T12:41:29;4.78;;;3.45;;
49948;SDS011;35840;45.982;8.890;2023-11-21T12:43:57;5.25;;;2.88;;
49948;SDS011;35840;45.982;8.890;2023-11-21T12:46:24;7.30;;;3.30;;
49948;SDS011;35840;45.982;8.890;2023-11-21T12:48:55;5.38;;;3.65;;
49948;SDS011;35840;45.982;8.890;2023-11-21T12:51:24;4.60;;;3.58;;
49948;SDS011;35840;45.982;8.890;2023-11-21T12:53:51;3.65;;;2.97;;
49948;SDS011;35840;45.982;8.890;2023-11-21T12:56:21;4.78;;;3.08;;
49948;SDS011;35840;45.982;8.890;2023-11-21T12:58:49;5.60;;;3.53;;
49948;SDS011;35840;45.982;8.890;2023-11-21T13:01:18;5.82;;;3.20;;
49948;SDS011;35840;45.982;8.890;2023-11-21T13:03:48;3.40;;;2.42;;
49948;SDS011;35840;45.982;8.890;2023-11-21T13:06:18;3.28;;;2.70;;
49948;SDS011;35840;45.982;8.890;2023-11-21T13:08:46;5.28;;;3.00;;
49948;SDS011;35840;45.982;8.890;2023-11-21T13:11:13;4.00;;;3.42;;
49948;SDS011;35840;45.982;8.890;2023-11-21T13:13:41;4.57;;;3.53;;
49948;SDS011;35840;45.982;8.890;2023-11-21T13:16:12;10.27;;;4.00;;
49948;SDS011;35840;45.982;8.890;2023-11-21T13:18:39;6.53;;;3.97;;
49948;SDS011;35840;45.982;8.890;2023-11-21T13:21:08;7.93;;;4.45;;
49948;SDS011;35840;45.982;8.890;2023-11-21T13:23:43;4.45;;;3.45;;
49948;SDS011;35840;45.982;8.890;2023-11-21T13:26:11;5.80;;;3.90;;
49948;SDS011;35840;45.982;8.890;2023-11-21T13:28:39;4.97;;;3.22;;
49948;SDS011;35840;45.982;8.890;2023-11-21T13:31:08;4.55;;;2.55;;
49948;SDS011;35840;45.982;8.890;2023-11-21T13:33:48;4.82;;;2.75;;
49948;SDS011;35840;45.982;8.890;2023-11-21T13:36:23;5.40;;;3.07;;
49948;SDS011;35840;45.982;8.890;2023-11-21T13:38:52;3.45;;;2.22;;
49948;SDS011;35840;45.982;8.890;2023-11-21T13:41:19;4.47;;;2.50;;
49948;SDS011;35840;45.982;8.890;2023-11-21T13:43:46;2.38;;;1.42;;
49948;SDS011;35840;45.982;8.890;2023-11-21T13:46:20;3.75;;;1.70;;
49948;SDS011;35840;45.982;8.890;2023-11-21T13:48:49;4.53;;;1.42;;
49948;SDS011;35840;45.982;8.890;2023-11-21T13:51:23;1.65;;;1.30;;
49948;SDS011;35840;45.982;8.890;2023-11-21T13:54:02;3.92;;;1.30;;
49948;SDS011;35840;45.982;8.890;2023-11-21T13:56:38;2.85;;;1.42;;
49948;SDS011;35840;45.982;8.890;2023-11-21T13:59:07;2.78;;;1.35;;
49948;SDS011;35840;45.982;8.890;2023-11-21T14:01:52;2.22;;;1.50;;
49948;SDS011;35840;45.982;8.890;2023-11-21T14:04:19;1.75;;;0.93;;
49948;SDS011;35840;45.982;8.890;2023-11-21T14:06:58;2.47;;;1.20;;
49948;SDS011;35840;45.982;8.890;2023-11-21T14:09:28;2.58;;;1.02;;
49948;SDS011;35840;45.982;8.890;2023-11-21T14:12:10;4.82;;;1.05;;
49948;SDS011;35840;45.982;8.890;2023-11-21T14:14:38;0.93;;;0.93;;
49948;SDS011;35840;45.982;8.890;2023-11-21T14:17:08;3.50;;;1.02;;
49948;SDS011;35840;45.982;8.890;2023-11-21T14:19:37;5.45;;;2.33;;
49948;SDS011;35840;45.982;8.890;2023-11-21T14:22:07;1.77;;;1.15;;
49948;SDS011;35840;45.982;8.890;2023-11-21T14:24:36;2.50;;;1.23;;
49948;SDS011;35840;45.982;8.890;2023-11-21T14:27:03;3.75;;;1.40;;
49948;SDS011;35840;45.982;8.890;2023-11-21T14:29:31;3.08;;;1.52;;
49948;SDS011;35840;45.982;8.890;2023-11-21T14:32:03;3.17;;;1.58;;
49948;SDS011;35840;45.982;8.890;2023-11-21T14:34:31;4.80;;;1.40;;
49948;SDS011;35840;45.982;8.890;2023-11-21T14:36:58;5.97;;;1.30;;
49948;SDS011;35840;45.982;8.890;2023-11-21T14:39:25;6.05;;;2.15;;
49948;SDS011;35840;45.982;8.890;2023-11-21T14:41:55;10.48;;;2.38;;
49948;SDS011;35840;45.982;8.890;2023-11-21T14:44:23;9.35;;;2.08;;
49948;SDS011;35840;45.982;8.890;2023-11-21T14:46:53;3.88;;;1.80;;
49948;SDS011;35840;45.982;8.890;2023-11-21T14:49:24;4.07;;;1.83;;
49948;SDS011;35840;45.982;8.890;2023-11-21T14:51:54;2.70;;;1.80;;
49948;SDS011;35840;45.982;8.890;2023-11-21T14:54:27;6.38;;;1.45;;
49948;SDS011;35840;45.982;8.890;2023-11-21T14:57:11;4.25;;;1.65;;
49948;SDS011;35840;45.982;8.890;2023-11-21T14:59:46;7.20;;;1.60;;